Time;durP1;ratioP1;P1;durP2;ratioP2;P2;SDS_P1;SDS_P2;PMS_P1;PMS_P2;Temp;Humidity;BMP_temperature;BMP_pressure;BME280_temperature;BME280_humidity;BME280_pressure;Samples;Min_cycle;Max_cycle;Signal;HPM_P1;HPM_P2
2021/03/05 00:02:11;;;;;;;10.23;8.43;;;6.80;99.90;;;;;;5117834;28;20182;-40
2021/03/05 00:04:36;;;;;;;12.23;8.77;;;6.80;99.90;;;;;;5099923;28;20179;-40
2021/03/05 00:07:02;;;;;;;9.90;8.90;;;6.80;99.90;;;;;;5118090;28;20218;-41
2021/03/05 00:09:28;;;;;;;9.63;8.50;;;6.80;99.90;;;;;;5117455;28;20645;-42
2021/03/05 00:11:53;;;;;;;10.03;8.50;;;6.90;99.90;;;;;;5117821;28;20187;-40
2021/03/05 00:14:19;;;;;;;9.97;8.03;;;6.90;99.90;;;;;;5117522;28;20224;-41
2021/03/05 00:16:44;;;;;;;10.37;9.27;;;6.90;99.90;;;;;;5117948;28;20227;-41
2021/03/05 00:19:10;;;;;;;10.30;9.00;;;6.90;99.90;;;;;;5117423;28;20172;-40
2021/03/05 00:21:36;;;;;;;10.53;9.30;;;7.00;99.90;;;;;;5117564;28;20186;-39
2021/03/05 00:24:01;;;;;;;10.57;8.80;;;7.00;99.90;;;;;;5116723;28;20172;-42
2021/03/05 00:26:27;;;;;;;10.70;9.57;;;6.90;99.90;;;;;;5117394;28;20176;-42
2021/03/05 00:28:52;;;;;;;11.13;9.10;;;6.80;99.90;;;;;;5118039;28;20176;-42
2021/03/05 00:31:18;;;;;;;11.43;10.00;;;6.80;99.90;;;;;;5117873;28;20460;-40
2021/03/05 00:33:43;;;;;;;11.07;9.57;;;6.70;99.90;;;;;;5117811;28;20275;-41
2021/03/05 00:36:09;;;;;;;13.03;11.00;;;6.70;99.90;;;;;;5117673;28;20179;-42
2021/03/05 00:38:35;;;;;;;23.03;19.27;;;6.60;99.90;;;;;;5117779;28;20179;-42
2021/03/05 00:41:00;;;;;;;25.30;21.60;;;6.60;99.90;;;;;;5117464;28;20266;-41
2021/03/05 00:43:26;;;;;;;27.07;23.90;;;6.40;99.90;;;;;;5117761;28;20176;-39
2021/03/05 00:45:52;;;;;;;26.63;22.70;;;6.30;99.90;;;;;;5117474;28;20174;-40
2021/03/05 00:48:18;;;;;;;29.23;23.50;;;6.10;99.90;;;;;;5117408;28;20179;-40
2021/03/05 00:50:43;;;;;;;29.27;23.87;;;6.00;99.90;;;;;;5117566;28;20172;-41
2021/03/05 00:53:09;;;;;;;29.97;23.60;;;5.80;99.90;;;;;;5117408;28;20210;-42
2021/03/05 00:55:35;;;;;;;27.83;22.20;;;5.60;99.90;;;;;;5117434;28;20179;-38
2021/03/05 00:58:00;;;;;;;25.83;21.37;;;5.40;99.90;;;;;;5117402;28;20210;-37
2021/03/05 01:00:26;;;;;;;26.13;21.50;;;5.40;99.90;;;;;;5117245;28;20240;-40
2021/03/05 01:02:52;;;;;;;26.30;20.97;;;5.20;99.90;;;;;;5118925;28;20244;-41
2021/03/05 01:05:18;;;;;;;25.97;22.30;;;5.20;99.90;;;;;;5121018;28;20413;-42
2021/03/05 01:07:44;;;;;;;27.83;22.77;;;5.20;99.90;;;;;;5120808;28;20184;-41
2021/03/05 01:10:10;;;;;;;27.40;21.10;;;5.10;99.90;;;;;;5121130;28;20437;-41
2021/03/05 01:12:36;;;;;;;24.43;19.73;;;5.10;99.90;;;;;;5120753;28;20183;-42
2021/03/05 01:15:04;;;;;;;26.03;19.93;;;5.10;99.90;;;;;;5120717;28;20847;-40
2021/03/05 01:17:30;;;;;;;22.70;19.53;;;5.00;99.90;;;;;;5120658;28;20207;-37
2021/03/05 01:19:55;;;;;;;22.80;18.33;;;4.90;99.90;;;;;;5120263;28;20430;-41
2021/03/05 01:22:21;;;;;;;24.73;19.30;;;4.70;99.90;;;;;;5120787;28;20184;-40
2021/03/05 01:24:47;;;;;;;28.03;21.60;;;4.70;99.90;;;;;;5120927;28;20202;-40
2021/03/05 01:27:12;;;;;;;28.73;21.20;;;4.60;99.90;;;;;;5120577;28;20168;-41
2021/03/05 01:29:38;;;;;;;26.50;20.17;;;4.60;99.90;;;;;;5120143;28;20179;-40
2021/03/05 01:32:04;;;;;;;30.20;21.50;;;4.60;99.90;;;;;;5103197;28;20225;-41
2021/03/05 01:34:29;;;;;;;26.53;21.47;;;4.50;99.90;;;;;;5120002;28;20484;-41
2021/03/05 01:36:55;;;;;;;31.27;22.70;;;4.50;99.90;;;;;;5120018;28;20461;-41
2021/03/05 01:39:21;;;;;;;30.77;20.00;;;4.40;99.90;;;;;;5120284;28;20179;-42
2021/03/05 01:41:47;;;;;;;33.20;22.47;;;4.30;99.90;;;;;;5120012;28;20425;-41
2021/03/05 01:44:13;;;;;;;32.00;20.67;;;4.20;99.90;;;;;;5120411;28;20402;-41
2021/03/05 01:46:39;;;;;;;29.80;21.30;;;4.20;99.90;;;;;;5119977;28;20186;-37
2021/03/05 01:49:05;;;;;;;32.03;20.63;;;4.10;99.90;;;;;;5120230;28;20405;-40
2021/03/05 01:51:33;;;;;;;29.10;20.13;;;4.10;99.90;;;;;;5120755;28;20414;-42
2021/03/05 01:53:59;;;;;;;26.23;18.63;;;4.10;99.90;;;;;;5119822;28;20409;-41
2021/03/05 01:56:30;;;;;;;27.80;19.60;;;4.10;99.90;;;;;;5120151;28;20548;-44
2021/03/05 01:58:56;;;;;;;23.93;17.70;;;4.10;99.90;;;;;;5119844;28;20172;-40
2021/03/05 02:01:22;;;;;;;22.03;16.63;;;4.10;99.90;;;;;;5119982;28;20418;-39
2021/03/05 02:03:47;;;;;;;26.00;18.00;;;4.10;99.90;;;;;;5119215;28;20180;-41
2021/03/05 02:06:13;;;;;;;24.93;17.20;;;4.00;99.90;;;;;;5119000;28;20858;-42
2021/03/05 02:08:39;;;;;;;29.13;18.73;;;4.00;99.90;;;;;;5100876;28;20164;-40
2021/03/05 02:11:04;;;;;;;27.70;19.13;;;4.00;99.90;;;;;;5118750;28;20239;-38
2021/03/05 02:13:30;;;;;;;31.20;20.87;;;3.90;99.90;;;;;;5118898;28;20302;-41
2021/03/05 02:15:56;;;;;;;31.63;20.57;;;3.90;99.90;;;;;;5118545;28;20217;-40
2021/03/05 02:18:38;;;;;;;32.70;23.60;;;3.80;99.90;;;;;;5101320;28;20215;-36
2021/03/05 02:21:36;;;;;;;37.27;24.00;;;3.80;99.90;;;;;;5101797;28;20524;-40
2021/03/05 02:24:37;;;;;;;40.20;24.70;;;3.70;99.90;;;;;;5063474;28;20417;-40
2021/03/05 02:27:25;;;;;;;36.47;25.00;;;3.70;99.90;;;;;;5101616;28;20711;-37
2021/03/05 02:30:34;;;;;;;41.93;24.77;;;3.70;99.90;;;;;;5101547;28;20413;-39
2021/03/05 02:33:05;;;;;;;41.13;26.27;;;3.70;99.90;;;;;;5101343;28;20420;-40
2021/03/05 02:35:33;;;;;;;43.57;25.50;;;3.60;99.90;;;;;;5119101;28;20409;-42
2021/03/05 02:38:03;;;;;;;44.30;27.37;;;3.60;99.90;;;;;;5101309;28;20505;-41
2021/03/05 02:40:33;;;;;;;40.20;25.77;;;3.60;99.90;;;;;;5101211;28;20487;-39
2021/03/05 02:43:03;;;;;;;44.50;29.00;;;3.50;99.90;;;;;;5101284;28;20425;-39
2021/03/05 02:45:32;;;;;;;42.73;25.07;;;3.40;99.90;;;;;;5118994;28;20433;-40
2021/03/05 02:48:03;;;;;;;45.53;27.00;;;3.40;99.90;;;;;;5101334;28;20410;-40
2021/03/05 02:50:31;;;;;;;38.53;26.37;;;3.50;99.90;;;;;;5101402;28;20451;-39
2021/03/05 02:53:00;;;;;;;40.23;25.30;;;3.40;99.90;;;;;;5084018;28;20500;-40
2021/03/05 02:58:50;;;;;;;38.17;24.13;;;3.40;99.90;;;;;;5118637;28;20417;-41
2021/03/05 03:01:16;;;;;;;36.43;24.03;;;3.40;99.90;;;;;;5100789;28;20445;-41
2021/03/05 03:03:43;;;;;;;38.47;25.00;;;3.40;99.90;;;;;;5100998;28;20401;-40
2021/03/05 03:06:09;;;;;;;38.10;24.73;;;3.40;99.90;;;;;;5100504;28;20412;-42
2021/03/05 03:08:36;;;;;;;45.10;27.47;;;3.40;99.90;;;;;;5100377;28;20406;-39
2021/03/05 03:11:03;;;;;;;42.33;28.30;;;3.40;99.90;;;;;;5118571;28;20748;-40
2021/03/05 03:13:29;;;;;;;44.43;26.37;;;3.30;99.90;;;;;;5118615;28;20548;-42
2021/03/05 03:15:55;;;;;;;40.57;27.00;;;3.30;99.90;;;;;;5101091;28;20464;-38
2021/03/05 03:18:22;;;;;;;47.67;28.80;;;3.20;99.90;;;;;;5116163;28;20461;-37
2021/03/05 03:20:48;;;;;;;40.33;27.17;;;3.20;99.90;;;;;;5108862;28;20434;-42
2021/03/05 03:23:14;;;;;;;41.27;25.70;;;3.20;99.90;;;;;;5091743;28;20421;-40
2021/03/05 03:25:40;;;;;;;42.03;26.50;;;3.30;99.90;;;;;;5079191;28;20425;-40
2021/03/05 03:28:06;;;;;;;35.90;24.47;;;3.30;99.90;;;;;;5096428;28;20180;-41
2021/03/05 03:30:31;;;;;;;32.80;23.20;;;3.20;99.90;;;;;;5096377;28;20175;-39
2021/03/05 03:32:57;;;;;;;33.60;23.20;;;3.20;99.90;;;;;;5096784;28;20203;-42
2021/03/05 03:35:24;;;;;;;28.47;20.23;;;3.20;99.90;;;;;;5098062;28;20578;-40
2021/03/05 03:37:51;;;;;;;28.40;22.00;;;3.20;99.90;;;;;;5097338;28;20553;-42
2021/03/05 03:40:19;;;;;;;33.90;23.60;;;3.10;99.90;;;;;;5097635;28;20426;-41
2021/03/05 03:42:45;;;;;;;31.27;21.50;;;3.10;99.90;;;;;;5097321;28;20836;-40
2021/03/05 03:45:14;;;;;;;31.97;22.30;;;3.10;99.90;;;;;;5097624;28;20430;-41
2021/03/05 03:47:41;;;;;;;35.60;23.37;;;3.10;99.90;;;;;;5080291;28;20832;-40
2021/03/05 03:50:18;;;;;;;32.40;22.90;;;3.10;99.90;;;;;;5112191;28;20816;-41
2021/03/05 03:53:12;;;;;;;34.83;22.00;;;3.00;99.90;;;;;;5111551;28;20437;-42
2021/03/05 03:55:38;;;;;;;37.70;25.93;;;3.00;99.90;;;;;;5106966;28;20441;-42
2021/03/05 03:58:04;;;;;;;34.53;24.77;;;3.00;99.90;;;;;;5102307;28;20568;-40
2021/03/05 04:00:30;;;;;;;34.40;23.97;;;3.00;99.90;;;;;;5096988;28;20418;-40
2021/03/05 04:02:57;;;;;;;31.93;24.10;;;3.00;99.90;;;;;;5061338;28;20514;-39
2021/03/05 04:05:25;;;;;;;33.60;23.23;;;3.00;99.90;;;;;;5062125;28;20503;-39
2021/03/05 04:07:51;;;;;;;33.10;23.07;;;3.00;99.90;;;;;;5096547;28;20514;-42
2021/03/05 04:10:18;;;;;;;33.27;23.90;;;3.00;99.90;;;;;;5097287;28;20527;-41
2021/03/05 04:12:44;;;;;;;35.30;24.27;;;3.00;99.90;;;;;;5096671;28;20789;-41
2021/03/05 04:15:10;;;;;;;33.43;24.27;;;3.00;99.90;;;;;;5097181;28;20520;-39
2021/03/05 04:17:36;;;;;;;32.43;22.73;;;2.90;99.90;;;;;;5096713;28;20509;-42
2021/03/05 04:20:03;;;;;;;31.57;21.60;;;3.00;99.90;;;;;;5097141;28;20450;-41
2021/03/05 04:22:29;;;;;;;27.80;20.60;;;3.00;99.90;;;;;;5078637;28;20180;-41
2021/03/05 04:24:55;;;;;;;29.93;21.53;;;3.00;99.90;;;;;;5077985;28;20423;-40
2021/03/05 04:27:21;;;;;;;28.67;21.37;;;3.00;99.90;;;;;;5095350;28;20760;-37
2021/03/05 04:29:46;;;;;;;27.03;19.93;;;3.00;99.90;;;;;;5095457;28;20180;-40
2021/03/05 04:32:12;;;;;;;27.23;20.17;;;3.00;99.90;;;;;;5095230;28;20181;-41
2021/03/05 04:34:37;;;;;;;27.70;20.30;;;2.90;99.90;;;;;;5081360;28;20180;-41
2021/03/05 04:37:03;;;;;;;25.27;20.40;;;2.90;99.90;;;;;;5116309;28;20223;-40
2021/03/05 04:39:29;;;;;;;27.40;20.30;;;3.00;99.90;;;;;;5120552;28;20199;-41
2021/03/05 04:41:55;;;;;;;27.90;20.10;;;2.90;99.90;;;;;;5103547;28;20452;-40
2021/03/05 04:44:21;;;;;;;27.93;21.00;;;2.80;99.90;;;;;;5102863;28;20179;-41
2021/03/05 04:46:47;;;;;;;24.77;18.20;;;2.80;99.90;;;;;;5121224;28;20410;-41
2021/03/05 04:49:12;;;;;;;26.37;19.10;;;2.90;99.90;;;;;;5121111;28;20282;-37
2021/03/05 04:51:38;;;;;;;24.83;17.40;;;2.80;99.90;;;;;;5120912;28;20180;-42
2021/03/05 04:54:04;;;;;;;20.97;16.00;;;2.80;99.90;;;;;;5102783;28;20187;-41
2021/03/05 04:56:29;;;;;;;21.20;16.33;;;2.70;99.90;;;;;;5121067;28;20211;-41
2021/03/05 04:58:55;;;;;;;22.00;17.70;;;2.70;99.90;;;;;;5120915;28;20823;-41
2021/03/05 05:01:20;;;;;;;23.87;16.90;;;2.70;99.90;;;;;;5120815;28;20486;-42
2021/03/05 05:03:46;;;;;;;22.03;17.40;;;2.70;99.90;;;;;;5120844;28;20172;-40
2021/03/05 05:06:13;;;;;;;25.10;17.70;;;2.60;99.90;;;;;;5120686;28;20175;-40
2021/03/05 05:08:38;;;;;;;23.53;17.17;;;2.60;99.90;;;;;;5120811;28;20168;-40
2021/03/05 05:11:04;;;;;;;23.87;17.43;;;2.60;99.90;;;;;;5102453;28;20671;-36
2021/03/05 05:13:30;;;;;;;24.30;17.87;;;2.70;99.90;;;;;;5120342;28;20710;-40
2021/03/05 05:15:56;;;;;;;20.87;16.77;;;2.70;99.90;;;;;;5120544;28;20229;-41
2021/03/05 05:18:21;;;;;;;21.93;15.87;;;2.70;99.90;;;;;;5120287;28;20465;-42
2021/03/05 05:20:48;;;;;;;23.03;16.50;;;2.80;99.90;;;;;;5103013;28;20179;-39
2021/03/05 05:23:13;;;;;;;21.50;17.30;;;2.80;99.90;;;;;;5102103;28;20452;-40
2021/03/05 05:25:39;;;;;;;21.80;16.50;;;2.80;99.90;;;;;;5120154;28;20460;-38
2021/03/05 05:28:05;;;;;;;22.97;17.43;;;2.80;99.90;;;;;;5120281;28;20183;-40
2021/03/05 05:30:30;;;;;;;23.37;16.50;;;2.80;99.90;;;;;;5120349;28;20248;-42
2021/03/05 05:32:56;;;;;;;25.10;18.63;;;2.80;99.90;;;;;;5120344;28;20502;-41
2021/03/05 05:35:22;;;;;;;27.20;20.20;;;2.80;99.90;;;;;;5120446;28;20183;-42
2021/03/05 05:37:47;;;;;;;22.50;16.87;;;2.80;99.90;;;;;;5119858;28;20271;-40
2021/03/05 05:40:14;;;;;;;26.80;19.43;;;2.80;99.90;;;;;;5119380;28;20460;-41
2021/03/05 05:42:40;;;;;;;24.80;17.63;;;2.80;99.90;;;;;;5119817;28;20259;-41
2021/03/05 05:45:06;;;;;;;23.07;17.07;;;2.80;99.90;;;;;;5119872;28;20760;-41
2021/03/05 05:47:35;;;;;;;22.10;16.63;;;2.90;99.90;;;;;;5120110;28;20187;-41
2021/03/05 05:50:04;;;;;;;24.23;16.40;;;2.90;99.90;;;;;;5118493;28;20478;-41
2021/03/05 05:52:31;;;;;;;20.83;16.03;;;2.90;99.90;;;;;;5119891;28;20430;-38
2021/03/05 05:54:57;;;;;;;20.57;14.70;;;2.80;99.90;;;;;;5120082;28;20726;-42
2021/03/05 05:57:24;;;;;;;23.47;15.70;;;2.80;99.90;;;;;;5084150;28;20469;-41
2021/03/05 05:59:50;;;;;;;22.00;16.07;;;2.80;99.90;;;;;;5119174;28;20437;-42
2021/03/05 06:02:16;;;;;;;22.53;15.97;;;2.80;99.90;;;;;;5119704;28;20414;-39
2021/03/05 06:04:43;;;;;;;24.47;16.67;;;2.80;99.90;;;;;;5113733;28;20440;-40
2021/03/05 06:07:10;;;;;;;19.57;13.93;;;2.90;99.90;;;;;;5098933;28;20818;-38
2021/03/05 06:09:35;;;;;;;20.57;15.90;;;2.90;99.90;;;;;;5100527;28;20858;-41
2021/03/05 06:12:12;;;;;;;23.83;16.37;;;2.90;99.90;;;;;;5119050;28;20429;-42
2021/03/05 06:14:39;;;;;;;20.30;14.53;;;2.90;99.90;;;;;;5097433;28;20239;-38
2021/03/05 06:17:05;;;;;;;24.47;15.43;;;2.90;99.90;;;;;;5097480;28;20470;-40
2021/03/05 06:19:30;;;;;;;22.00;15.30;;;2.80;99.90;;;;;;5098289;28;20886;-41
2021/03/05 06:21:57;;;;;;;20.93;15.03;;;2.90;99.90;;;;;;5098447;28;20263;-39
2021/03/05 06:24:22;;;;;;;22.27;15.37;;;2.90;99.90;;;;;;5098631;28;20625;-40
2021/03/05 06:26:58;;;;;;;24.57;16.13;;;2.90;99.90;;;;;;5097600;28;20510;-40
2021/03/05 06:29:28;;;;;;;24.67;15.30;;;2.80;99.90;;;;;;5097250;28;20218;-42
2021/03/05 06:32:00;;;;;;;24.20;15.87;;;2.80;99.90;;;;;;5096600;28;20450;-40
2021/03/05 06:34:26;;;;;;;23.73;16.70;;;2.90;99.90;;;;;;5097295;28;20653;-38
2021/03/05 06:37:04;;;;;;;23.13;16.30;;;2.90;99.90;;;;;;5096856;28;20470;-42
2021/03/05 06:39:33;;;;;;;23.90;15.70;;;2.90;99.90;;;;;;5097822;28;20476;-42
2021/03/05 06:42:00;;;;;;;22.53;14.90;;;2.90;99.90;;;;;;5098241;28;20704;-37
2021/03/05 06:44:27;;;;;;;23.63;14.73;;;2.90;99.90;;;;;;5096553;28;20414;-41
2021/03/05 06:46:53;;;;;;;21.60;14.67;;;2.90;99.90;;;;;;5094040;28;20445;-40
2021/03/05 06:49:19;;;;;;;20.90;14.97;;;2.90;99.90;;;;;;5094694;28;20836;-41
2021/03/05 06:51:52;;;;;;;20.63;14.97;;;2.90;99.90;;;;;;5094952;28;20180;-40
2021/03/05 06:54:18;;;;;;;22.97;14.43;;;2.80;99.90;;;;;;5095144;28;20510;-41
2021/03/05 06:56:50;;;;;;;22.53;15.30;;;2.90;99.90;;;;;;5095254;28;21100;-41
2021/03/05 06:59:18;;;;;;;23.30;15.57;;;2.90;99.90;;;;;;5093181;28;20245;-42
2021/03/05 07:02:02;;;;;;;22.93;15.27;;;2.90;99.90;;;;;;5112423;28;20418;-39
2021/03/05 07:04:32;;;;;;;21.00;14.97;;;2.90;99.90;;;;;;5109702;28;20422;-40
2021/03/05 07:07:08;;;;;;;18.90;14.07;;;2.90;99.90;;;;;;5111326;28;20771;-40
2021/03/05 07:09:36;;;;;;;21.70;15.47;;;3.00;99.90;;;;;;5079462;28;20436;-38
2021/03/05 07:12:12;;;;;;;25.00;15.47;;;3.00;99.90;;;;;;5097482;28;20724;-41
2021/03/05 07:14:40;;;;;;;23.47;15.63;;;3.00;99.90;;;;;;5116621;28;20460;-41
2021/03/05 07:17:06;;;;;;;21.30;15.00;;;3.00;99.90;;;;;;5115019;28;20735;-40
2021/03/05 07:19:34;;;;;;;21.97;14.57;;;3.10;99.90;;;;;;5116529;28;20490;-38
2021/03/05 07:22:00;;;;;;;21.73;14.63;;;3.10;99.90;;;;;;5116425;28;20895;-38
2021/03/05 07:24:28;;;;;;;21.83;14.83;;;3.10;99.90;;;;;;5060221;28;20438;-38
2021/03/05 07:27:00;;;;;;;25.03;15.50;;;3.10;99.90;;;;;;5095821;28;20747;-37
2021/03/05 07:29:46;;;;;;;21.83;16.00;;;3.10;99.90;;;;;;5095508;28;20570;-38
2021/03/05 07:32:20;;;;;;;23.57;15.40;;;3.10;99.90;;;;;;5092787;28;20435;-38
2021/03/05 07:35:12;;;;;;;24.13;16.43;;;3.10;99.90;;;;;;5075416;28;20423;-38
2021/03/05 07:37:45;;;;;;;21.10;14.80;;;3.10;99.90;;;;;;5058954;28;20540;-40
2021/03/05 07:40:13;;;;;;;23.80;15.13;;;3.10;99.90;;;;;;5096572;28;20426;-41
2021/03/05 07:42:39;;;;;;;23.67;15.97;;;3.20;99.90;;;;;;5097095;28;20514;-41
2021/03/05 07:45:06;;;;;;;27.03;17.20;;;3.10;99.90;;;;;;5096648;28;20704;-41
2021/03/05 07:47:34;;;;;;;24.13;15.50;;;3.10;99.90;;;;;;5097120;28;20422;-37
2021/03/05 07:50:03;;;;;;;23.43;16.03;;;3.10;99.90;;;;;;5096266;28;20430;-40
2021/03/05 07:52:28;;;;;;;22.60;15.33;;;3.10;99.90;;;;;;5095838;28;20434;-40
2021/03/05 07:54:54;;;;;;;22.53;15.30;;;3.20;99.90;;;;;;5096721;28;20422;-37
2021/03/05 07:57:19;;;;;;;21.73;15.10;;;3.20;99.90;;;;;;5096873;28;20208;-38
2021/03/05 07:59:47;;;;;;;25.77;16.60;;;3.20;99.90;;;;;;5092424;28;20267;-39
2021/03/05 08:02:14;;;;;;;25.37;16.23;;;3.30;99.90;;;;;;5096838;28;20458;-39
2021/03/05 08:04:49;;;;;;;22.57;15.30;;;3.30;99.90;;;;;;5116257;28;20866;-41
2021/03/05 08:07:19;;;;;;;24.80;15.50;;;3.30;99.90;;;;;;5112268;28;20438;-36
2021/03/05 08:09:45;;;;;;;23.80;15.60;;;3.30;99.90;;;;;;5094684;28;20430;-38
2021/03/05 08:12:27;;;;;;;31.13;17.63;;;3.40;99.90;;;;;;5087855;28;20449;-38
2021/03/05 08:15:13;;;;;;;27.03;16.87;;;3.40;99.90;;;;;;5120791;28;20482;-37
2021/03/05 08:17:44;;;;;;;25.27;14.60;;;3.50;99.90;;;;;;5120504;28;20457;-41
2021/03/05 08:20:17;;;;;;;24.27;16.87;;;3.50;99.90;;;;;;5121498;28;20421;-40
2021/03/05 08:23:01;;;;;;;22.90;15.70;;;3.60;99.90;;;;;;5121441;28;20635;-39
2021/03/05 08:25:39;;;;;;;22.37;15.00;;;3.70;99.90;;;;;;5122562;27;20433;-41
2021/03/05 08:28:06;;;;;;;22.23;14.53;;;3.70;99.90;;;;;;5118513;27;20412;-39
2021/03/05 08:30:35;;;;;;;23.80;16.83;;;3.80;99.90;;;;;;5141757;27;20444;-38
2021/03/05 08:33:07;;;;;;;22.07;15.90;;;3.70;99.90;;;;;;5140532;27;20436;-40
2021/03/05 08:35:37;;;;;;;21.40;15.50;;;3.60;99.90;;;;;;5140748;27;20476;-39
2021/03/05 08:38:05;;;;;;;25.30;15.40;;;3.60;99.90;;;;;;5141311;27;20574;-40
2021/03/05 08:40:34;;;;;;;23.80;15.57;;;3.70;99.90;;;;;;5140006;27;20409;-39
2021/03/05 08:43:09;;;;;;;20.47;14.23;;;3.60;99.90;;;;;;5122581;27;20459;-39
2021/03/05 08:45:40;;;;;;;22.40;14.17;;;3.70;99.90;;;;;;5141723;27;20427;-39
2021/03/05 08:48:06;;;;;;;18.13;11.43;;;3.80;99.90;;;;;;5102499;28;20433;-39
2021/03/05 08:50:34;;;;;;;19.67;12.17;;;4.40;99.90;;;;;;5102075;28;20485;-38
2021/03/05 08:53:12;;;;;;;20.70;13.67;;;5.20;99.90;;;;;;5127553;27;20435;-39
2021/03/05 08:55:40;;;;;;;17.50;12.67;;;5.80;99.90;;;;;;5134570;27;20573;-37
2021/03/05 08:58:06;;;;;;;14.60;11.00;;;6.30;99.90;;;;;;5137774;27;20472;-40
2021/03/05 09:00:33;;;;;;;14.77;10.63;;;6.70;99.90;;;;;;5102298;28;20731;-41
2021/03/05 09:03:13;;;;;;;15.00;11.47;;;7.10;99.10;;;;;;5128164;27;20680;-41
2021/03/05 09:05:41;;;;;;;14.80;12.00;;;7.50;98.00;;;;;;5138594;27;20468;-39
2021/03/05 09:08:09;;;;;;;15.40;12.50;;;7.50;94.80;;;;;;5139864;27;20434;-38
2021/03/05 09:10:59;;;;;;;14.90;11.60;;;7.20;93.10;;;;;;5140017;27;20692;-38
2021/03/05 09:13:28;;;;;;;16.23;12.27;;;6.80;93.40;;;;;;5139941;27;20742;-41
2021/03/05 09:15:56;;;;;;;14.60;11.47;;;6.40;93.70;;;;;;5120841;27;20415;-42
2021/03/05 09:18:30;;;;;;;16.90;11.70;;;6.10;94.70;;;;;;5139208;27;20927;-38
2021/03/05 09:20:57;;;;;;;15.40;11.87;;;6.00;95.20;;;;;;5139959;27;20408;-39
2021/03/05 09:23:44;;;;;;;17.23;13.60;;;5.70;95.30;;;;;;5139346;27;20882;-38
2021/03/05 09:26:15;;;;;;;15.67;12.57;;;5.50;96.00;;;;;;5140047;27;20664;-39
2021/03/05 09:28:56;;;;;;;18.30;13.43;;;5.30;95.80;;;;;;5139327;27;20433;-37
2021/03/05 09:31:23;;;;;;;19.23;11.47;;;5.10;96.50;;;;;;5140704;27;20576;-36
2021/03/05 09:33:49;;;;;;;15.13;11.47;;;5.00;97.00;;;;;;5140012;27;20425;-37
2021/03/05 09:36:19;;;;;;;16.93;12.47;;;4.70;96.80;;;;;;5102292;27;20481;-36
2021/03/05 09:38:52;;;;;;;16.80;12.17;;;4.80;97.20;;;;;;5136768;27;20182;-37
2021/03/05 09:41:25;;;;;;;19.03;12.07;;;4.90;97.30;;;;;;5118366;27;20420;-38
2021/03/05 09:44:05;;;;;;;17.80;12.20;;;5.00;97.50;;;;;;5137346;27;20440;-38
2021/03/05 09:46:38;;;;;;;15.40;10.87;;;5.20;97.20;;;;;;5136071;27;20553;-37
2021/03/05 09:49:25;;;;;;;16.00;12.03;;;5.30;96.90;;;;;;5137228;27;20448;-41
2021/03/05 09:51:51;;;;;;;16.37;10.83;;;5.40;96.50;;;;;;5139294;27;20824;-37
2021/03/05 09:54:19;;;;;;;16.13;11.67;;;5.40;95.50;;;;;;5139434;27;20447;-39
2021/03/05 09:56:45;;;;;;;15.87;11.10;;;5.50;95.90;;;;;;5139737;27;20459;-35
2021/03/05 09:59:12;;;;;;;15.50;11.10;;;5.70;95.70;;;;;;5138972;27;20432;-38
2021/03/05 10:01:42;;;;;;;20.17;12.30;;;5.80;95.80;;;;;;5138670;27;20432;-36
2021/03/05 10:04:11;;;;;;;27.50;11.97;;;5.90;95.50;;;;;;5138408;27;20435;-37
2021/03/05 10:06:37;;;;;;;15.30;10.23;;;6.00;94.80;;;;;;5139258;27;20413;-39
2021/03/05 10:09:05;;;;;;;17.90;12.00;;;6.00;95.10;;;;;;5138784;27;20698;-40
2021/03/05 10:11:36;;;;;;;19.20;11.77;;;6.10;94.60;;;;;;5139768;27;20424;-39
2021/03/05 10:14:05;;;;;;;13.73;10.87;;;6.00;94.60;;;;;;5138460;27;20554;-39
2021/03/05 10:16:37;;;;;;;18.70;11.70;;;5.90;94.60;;;;;;5138454;27;20504;-39
2021/03/05 10:19:05;;;;;;;13.47;9.80;;;5.90;94.70;;;;;;5138114;27;20428;-41
2021/03/05 10:21:32;;;;;;;15.70;10.53;;;5.90;94.70;;;;;;5139112;27;20413;-39
2021/03/05 10:24:06;;;;;;;15.20;11.70;;;5.90;94.60;;;;;;5138827;27;20720;-36
2021/03/05 10:26:32;;;;;;;13.90;9.80;;;6.00;94.70;;;;;;5138762;27;20405;-39
2021/03/05 10:29:01;;;;;;;13.57;10.90;;;6.10;94.50;;;;;;5138878;27;20436;-39
2021/03/05 10:31:49;;;;;;;13.30;10.70;;;6.10;94.10;;;;;;5137657;27;20277;-38
2021/03/05 10:34:33;;;;;;;14.43;10.47;;;5.90;93.40;;;;;;5137050;27;20434;-39
2021/03/05 10:37:01;;;;;;;15.40;10.40;;;5.80;93.50;;;;;;5135263;27;20479;-36
2021/03/05 10:39:32;;;;;;;15.57;10.87;;;5.90;93.80;;;;;;5137094;27;20433;-39
2021/03/05 10:42:00;;;;;;;16.03;10.73;;;5.70;93.70;;;;;;5137305;27;20417;-36
2021/03/05 10:44:27;;;;;;;13.70;11.60;;;5.60;94.30;;;;;;5136984;27;20519;-37
2021/03/05 10:46:56;;;;;;;13.63;11.07;;;5.50;94.10;;;;;;5120271;27;20421;-40
2021/03/05 10:49:21;;;;;;;14.10;9.30;;;5.40;94.40;;;;;;5137335;27;20462;-37
2021/03/05 10:51:47;;;;;;;16.77;10.27;;;5.40;94.90;;;;;;5137869;27;20448;-39
2021/03/05 10:54:12;;;;;;;13.70;10.07;;;5.50;94.90;;;;;;5136587;27;20573;-40
2021/03/05 10:56:39;;;;;;;13.17;9.93;;;5.60;95.40;;;;;;5137096;27;20497;-38
2021/03/05 10:59:04;;;;;;;13.87;10.53;;;5.70;95.30;;;;;;5118911;27;20190;-39
2021/03/05 11:01:30;;;;;;;12.27;9.17;;;5.80;95.10;;;;;;5136897;27;20409;-41
2021/03/05 11:03:55;;;;;;;15.00;10.73;;;5.80;94.40;;;;;;5137836;27;20269;-39
2021/03/05 11:06:21;;;;;;;12.63;10.00;;;5.90;94.50;;;;;;5136873;27;20256;-36
2021/03/05 11:08:47;;;;;;;14.17;10.57;;;6.10;94.50;;;;;;5134774;27;20187;-40
2021/03/05 11:11:12;;;;;;;11.90;9.50;;;6.20;94.10;;;;;;5136114;27;20457;-38
2021/03/05 11:13:38;;;;;;;15.47;11.00;;;6.20;93.40;;;;;;5135606;27;20257;-40
2021/03/05 11:16:04;;;;;;;12.83;9.93;;;6.30;92.80;;;;;;5135518;27;20194;-41
2021/03/05 11:18:30;;;;;;;14.70;10.53;;;6.40;92.70;;;;;;5135827;27;20468;-38
2021/03/05 11:20:56;;;;;;;14.90;10.13;;;6.40;92.90;;;;;;5137034;27;20420;-39
2021/03/05 11:23:21;;;;;;;13.60;9.30;;;6.50;92.80;;;;;;5136965;27;20182;-40
2021/03/05 11:25:47;;;;;;;15.77;10.27;;;6.50;92.60;;;;;;5137529;27;20270;-39
2021/03/05 11:28:15;;;;;;;11.27;9.50;;;6.50;92.60;;;;;;5137616;27;20572;-40
2021/03/05 11:30:43;;;;;;;14.50;10.50;;;6.40;92.30;;;;;;5137577;27;20215;-39
2021/03/05 11:33:08;;;;;;;14.20;9.43;;;6.30;92.50;;;;;;5118452;27;20417;-39
2021/03/05 11:35:34;;;;;;;12.70;10.20;;;6.20;92.90;;;;;;5137765;27;20424;-36
2021/03/05 11:38:00;;;;;;;14.17;10.97;;;6.20;92.70;;;;;;5137033;27;20199;-35
2021/03/05 11:40:25;;;;;;;18.40;11.87;;;6.20;93.00;;;;;;5136166;27;20175;-40
2021/03/05 11:42:51;;;;;;;15.23;11.80;;;6.20;92.60;;;;;;5136931;27;20174;-37
2021/03/05 11:45:17;;;;;;;15.63;11.57;;;5.90;91.90;;;;;;5132283;27;20175;-38
2021/03/05 11:47:42;;;;;;;15.47;11.30;;;5.90;92.50;;;;;;5120795;27;20178;-39
2021/03/05 11:50:10;;;;;;;17.17;11.97;;;5.80;92.60;;;;;;5129953;27;20518;-36
2021/03/05 11:52:37;;;;;;;16.23;10.90;;;5.80;92.50;;;;;;5119326;28;20274;-40
2021/03/05 11:55:05;;;;;;;15.27;12.00;;;5.70;92.70;;;;;;5136305;27;20684;-41
2021/03/05 11:57:30;;;;;;;15.50;11.77;;;5.70;92.90;;;;;;5136936;27;20508;-38
2021/03/05 11:59:56;;;;;;;16.67;11.57;;;5.70;92.80;;;;;;5137633;28;20540;-40
2021/03/05 12:02:21;;;;;;;15.50;12.27;;;5.60;92.90;;;;;;5136418;28;20171;-41
2021/03/05 12:04:47;;;;;;;19.50;12.03;;;5.60;93.00;;;;;;5136907;28;20174;-42
2021/03/05 12:07:13;;;;;;;17.07;11.93;;;5.50;93.10;;;;;;5119422;28;20185;-40
2021/03/05 12:09:38;;;;;;;18.80;12.50;;;5.40;93.40;;;;;;5136440;28;20179;-38
2021/03/05 12:12:05;;;;;;;18.53;13.37;;;5.40;93.70;;;;;;5136755;28;20163;-41
2021/03/05 12:14:30;;;;;;;16.03;11.83;;;5.40;93.70;;;;;;5137254;28;20233;-40
2021/03/05 12:16:56;;;;;;;15.50;11.70;;;5.40;93.80;;;;;;5136236;28;20650;-36
2021/03/05 12:19:21;;;;;;;16.27;11.83;;;5.20;93.40;;;;;;5137058;28;20248;-39
2021/03/05 12:21:48;;;;;;;17.93;13.20;;;5.30;93.60;;;;;;5132130;28;20294;-41
2021/03/05 12:24:14;;;;;;;17.43;12.67;;;5.30;93.70;;;;;;5118447;28;20572;-39
2021/03/05 12:26:40;;;;;;;17.90;12.57;;;5.30;93.80;;;;;;5117270;28;20428;-41
2021/03/05 12:29:05;;;;;;;12.37;10.10;;;5.40;93.90;;;;;;5135926;28;20175;-41
2021/03/05 12:31:31;;;;;;;17.40;12.57;;;5.50;93.70;;;;;;5133638;28;20183;-39
2021/03/05 12:33:57;;;;;;;18.47;12.97;;;5.50;93.60;;;;;;5132640;28;20186;-39
2021/03/05 12:36:23;;;;;;;17.30;12.63;;;5.60;93.50;;;;;;5126657;28;20191;-41
2021/03/05 12:38:49;;;;;;;16.63;12.17;;;5.60;93.60;;;;;;5114666;28;20479;-40
2021/03/05 12:41:14;;;;;;;18.90;12.63;;;5.60;93.50;;;;;;5124543;28;20417;-39
2021/03/05 12:43:40;;;;;;;19.87;12.37;;;5.60;93.70;;;;;;5135569;28;20326;-40
2021/03/05 12:46:08;;;;;;;16.53;12.50;;;5.60;93.50;;;;;;5136531;28;20179;-40
2021/03/05 12:48:34;;;;;;;18.07;12.83;;;5.50;93.80;;;;;;5137281;28;20183;-41